createdAt,value
2022-11-19T00:01:52.381Z,-4.45
2022-11-19T00:04:23.853Z,-4.46
2022-11-19T00:06:55.714Z,-4.47
2022-11-19T00:09:27.294Z,-4.45
2022-11-19T00:12:17.834Z,-4.45
2022-11-19T00:14:49.305Z,-4.47
2022-11-19T00:17:21.074Z,-4.48
2022-11-19T00:19:52.541Z,-4.50
2022-11-19T00:22:24.397Z,-4.55
2022-11-19T00:24:55.891Z,-4.58
2022-11-19T00:27:27.708Z,-4.60
2022-11-19T00:29:59.218Z,-4.60
2022-11-19T00:32:32.272Z,-4.62
2022-11-19T00:35:03.768Z,-4.65
2022-11-19T00:37:35.590Z,-4.67
2022-11-19T00:40:12.012Z,-4.67
2022-11-19T00:43:03.911Z,-4.67
2022-11-19T00:45:35.420Z,-4.71
2022-11-19T00:48:07.218Z,-4.70
2022-11-19T00:50:38.709Z,-4.73
2022-11-19T00:53:10.496Z,-4.73
2022-11-19T00:55:41.965Z,-4.75
2022-11-19T00:58:14.168Z,-4.76
2022-11-19T01:00:45.698Z,-4.78
2022-11-19T01:03:17.623Z,-4.77
2022-11-19T01:05:49.106Z,-4.77
2022-11-19T01:08:20.923Z,-4.77
2022-11-19T01:10:52.477Z,-4.78
2022-11-19T01:13:36.643Z,-4.79
2022-11-19T01:16:08.125Z,-4.80
2022-11-19T01:18:39.942Z,-4.82
2022-11-19T01:21:11.475Z,-4.83
2022-11-19T01:23:43.294Z,-4.84
2022-11-19T01:26:14.801Z,-4.85
2022-11-19T01:28:46.588Z,-4.87
2022-11-19T01:31:18.077Z,-4.88
2022-11-19T01:33:49.869Z,-4.90
2022-11-19T01:36:21.334Z,-4.92
2022-11-19T01:38:54.123Z,-4.91
2022-11-19T01:41:25.599Z,-4.94
2022-11-19T01:43:59.412Z,-4.95
2022-11-19T01:46:30.933Z,-4.96
2022-11-19T01:49:02.777Z,-4.96
2022-11-19T01:51:34.242Z,-4.96
2022-11-19T01:54:06.653Z,-4.97
2022-11-19T01:56:38.126Z,-4.97
2022-11-19T01:59:09.974Z,-4.98
2022-11-19T02:01:41.527Z,-5.01
2022-11-19T02:04:13.412Z,-5.04
2022-11-19T02:06:44.919Z,-5.04
2022-11-19T02:09:16.955Z,-5.03
2022-11-19T02:11:48.629Z,-5.03
2022-11-19T02:14:20.513Z,-5.02
2022-11-19T02:16:51.995Z,-5.01
2022-11-19T02:19:23.807Z,-5.01
2022-11-19T02:21:55.317Z,-5.03
2022-11-19T02:24:27.099Z,-5.02
2022-11-19T02:26:58.639Z,-5.03
2022-11-19T02:29:30.587Z,-5.03
2022-11-19T02:32:02.070Z,-5.00
2022-11-19T02:34:33.869Z,-4.99
2022-11-19T02:37:05.341Z,-5.00
2022-11-19T02:39:37.112Z,-5.06
2022-11-19T02:42:08.608Z,-5.11
2022-11-19T02:44:59.365Z,-5.14
2022-11-19T02:47:31.376Z,-5.19
2022-11-19T02:50:02.894Z,-5.23
2022-11-19T02:52:34.686Z,-5.26
2022-11-19T02:55:06.172Z,-5.28
2022-11-19T02:57:38.120Z,-5.31
2022-11-19T03:00:28.522Z,-5.33
2022-11-19T03:03:32.372Z,-5.31
2022-11-19T03:06:03.844Z,-5.30
2022-11-19T03:08:35.608Z,-5.28
2022-11-19T03:11:07.080Z,-5.27
2022-11-19T03:13:57.790Z,-5.28
2022-11-19T03:16:41.400Z,-5.25
2022-11-19T03:19:13.390Z,-5.23
2022-11-19T03:21:44.868Z,-5.22
2022-11-19T03:24:16.675Z,-5.21
2022-11-19T03:26:48.135Z,-5.20
2022-11-19T03:29:20.342Z,-5.21
2022-11-19T03:31:52.085Z,-5.22
2022-11-19T03:34:23.865Z,-5.22
2022-11-19T03:36:55.310Z,-5.25
2022-11-19T03:39:27.243Z,-5.29
2022-11-19T03:41:58.786Z,-5.29
2022-11-19T03:44:30.714Z,-5.33
2022-11-19T03:47:02.202Z,-5.35
2022-11-19T03:49:34.063Z,-5.35
2022-11-19T03:52:05.593Z,-5.35
2022-11-19T03:54:37.469Z,-5.33
2022-11-19T03:57:08.918Z,-5.32
2022-11-19T03:59:40.727Z,-5.31
2022-11-19T04:02:12.216Z,-5.29
2022-11-19T04:04:43.993Z,-5.27
2022-11-19T04:07:15.581Z,-5.28
2022-11-19T04:09:47.482Z,-5.29
2022-11-19T04:12:19.045Z,-5.29
2022-11-19T04:14:50.809Z,-5.28
2022-11-19T04:17:22.269Z,-5.27
2022-11-19T04:19:54.054Z,-5.27
2022-11-19T04:22:25.525Z,-5.26
2022-11-19T04:24:57.415Z,-5.28
2022-11-19T04:27:28.867Z,-5.28
2022-11-19T04:30:00.551Z,-5.28
2022-11-19T04:32:32.478Z,-5.31
2022-11-19T04:35:03.964Z,-5.28
2022-11-19T04:37:36.009Z,-5.30
2022-11-19T04:40:07.868Z,-5.30
2022-11-19T04:42:39.334Z,-5.29
2022-11-19T04:45:11.406Z,-5.28
2022-11-19T04:47:42.860Z,-5.28
2022-11-19T04:50:14.731Z,-5.29
2022-11-19T04:52:46.190Z,-5.27
2022-11-19T04:55:18.066Z,-5.30
2022-11-19T04:57:51.789Z,-5.30
2022-11-19T05:00:23.899Z,-5.32
2022-11-19T05:02:55.467Z,-5.33
2022-11-19T05:05:27.470Z,-5.32
2022-11-19T05:07:58.980Z,-5.33
2022-11-19T05:10:30.843Z,-5.33
2022-11-19T05:13:02.362Z,-5.33
2022-11-19T05:15:34.251Z,-5.31
2022-11-19T05:18:05.747Z,-5.28
2022-11-19T05:20:37.628Z,-5.27
2022-11-19T05:23:09.130Z,-5.27
2022-11-19T05:25:41.041Z,-5.28
2022-11-19T05:28:12.520Z,-5.24
2022-11-19T05:30:44.144Z,-5.22
2022-11-19T05:33:15.643Z,-5.20
2022-11-19T05:35:47.587Z,-5.18
2022-11-19T05:38:19.184Z,-5.16
2022-11-19T05:40:51.111Z,-5.13
2022-11-19T05:43:22.595Z,-5.15
2022-11-19T05:45:54.493Z,-5.13
2022-11-19T05:48:25.954Z,-5.12
2022-11-19T05:50:57.509Z,-5.11
2022-11-19T05:53:28.966Z,-5.10
2022-11-19T05:56:01.230Z,-5.09
2022-11-19T05:58:32.763Z,-5.09
2022-11-19T06:01:04.620Z,-5.05
2022-11-19T06:03:36.117Z,-5.08
2022-11-19T06:06:08.194Z,-5.12
2022-11-19T06:08:39.708Z,-5.11
2022-11-19T06:11:31.615Z,-5.11
2022-11-19T06:14:03.143Z,-5.11
2022-11-19T06:16:35.277Z,-5.13
2022-11-19T06:19:06.831Z,-5.16
2022-11-19T06:21:38.961Z,-5.17
2022-11-19T06:24:10.448Z,-5.16
2022-11-19T06:26:42.111Z,-5.16
2022-11-19T06:29:13.772Z,-5.14
2022-11-19T06:31:45.801Z,-5.13
2022-11-19T06:34:17.282Z,-5.11
2022-11-19T06:36:50.749Z,-5.09
2022-11-19T06:39:22.751Z,-5.05
2022-11-19T06:42:14.936Z,-5.04
2022-11-19T06:44:46.408Z,-5.03
2022-11-19T06:47:18.298Z,-5.01
2022-11-19T06:49:49.788Z,-5.04
2022-11-19T06:52:21.323Z,-5.04
2022-11-19T06:54:52.914Z,-5.04
2022-11-19T06:57:25.304Z,-5.03
2022-11-19T06:59:56.941Z,-4.99
2022-11-19T07:02:28.926Z,-4.99
2022-11-19T07:05:00.383Z,-4.97
2022-11-19T07:07:32.453Z,-4.91
2022-11-19T07:10:03.956Z,-4.83
2022-11-19T07:12:36.063Z,-4.86
2022-11-19T07:15:07.715Z,-4.77
2022-11-19T07:17:40.226Z,-4.66
2022-11-19T07:20:11.712Z,-4.56
2022-11-19T07:22:43.675Z,-4.54
2022-11-19T07:25:15.174Z,-4.47
2022-11-19T07:27:47.883Z,-4.44
2022-11-19T07:30:19.350Z,-4.43
2022-11-19T07:32:51.395Z,-4.55
2022-11-19T07:35:22.971Z,-4.57
2022-11-19T07:37:55.081Z,-4.56
2022-11-19T07:40:26.970Z,-4.41
2022-11-19T07:42:58.453Z,-4.32
2022-11-19T07:45:30.237Z,-4.24
2022-11-19T07:48:01.713Z,-3.92
2022-11-19T07:50:33.548Z,-3.68
2022-11-19T07:53:05.048Z,-3.50
2022-11-19T07:55:36.708Z,-3.31
2022-11-19T07:58:08.585Z,-3.06
2022-11-19T08:00:40.092Z,-2.89
2022-11-19T08:03:11.838Z,-2.61
2022-11-19T08:05:43.309Z,-2.40
2022-11-19T08:08:15.304Z,-2.26
2022-11-19T08:10:46.779Z,-2.41
2022-11-19T08:13:18.277Z,-2.26
2022-11-19T08:15:49.738Z,-2.16
2022-11-19T08:18:21.528Z,-2.12
2022-11-19T08:20:53.012Z,-2.18
2022-11-19T08:23:24.508Z,-2.11
2022-11-19T08:25:56.030Z,-2.21
2022-11-19T08:28:27.853Z,-2.11
2022-11-19T08:30:59.360Z,-2.13
2022-11-19T08:33:31.504Z,-1.92
2022-11-19T08:36:02.991Z,-1.96
2022-11-19T08:38:38.636Z,-1.79
2022-11-19T08:41:36.730Z,-1.57
2022-11-19T08:44:08.563Z,-1.52
2022-11-19T08:46:40.176Z,-1.70
2022-11-19T08:49:14.790Z,-1.96
2022-11-19T08:51:46.290Z,-1.93
2022-11-19T08:54:18.477Z,-1.65
2022-11-19T08:56:50.178Z,-1.14
2022-11-19T08:59:21.961Z,-0.95
2022-11-19T09:01:53.727Z,-0.63
2022-11-19T09:04:25.665Z,-0.31
2022-11-19T09:06:57.298Z,-0.32
2022-11-19T09:09:29.170Z,0.37
2022-11-19T09:12:00.717Z,0.89
2022-11-19T09:14:32.536Z,1.33
2022-11-19T09:17:04.006Z,1.03
2022-11-19T09:19:35.807Z,1.51
2022-11-19T09:22:07.275Z,1.68
2022-11-19T09:24:39.314Z,1.62
2022-11-19T09:27:11.037Z,1.56
2022-11-19T09:29:43.037Z,1.27
2022-11-19T09:32:14.542Z,1.01
2022-11-19T09:34:46.379Z,1.04
2022-11-19T09:37:17.948Z,1.27
2022-11-19T09:39:49.758Z,1.14
2022-11-19T09:42:21.251Z,1.13
2022-11-19T09:44:53.045Z,1.22
2022-11-19T09:47:24.544Z,1.42
2022-11-19T09:49:56.359Z,1.54
2022-11-19T09:52:27.848Z,1.66
2022-11-19T09:54:59.793Z,1.61
2022-11-19T09:57:31.308Z,1.21
2022-11-19T10:00:03.207Z,1.40
2022-11-19T10:02:34.750Z,1.44
2022-11-19T10:05:06.645Z,1.23
2022-11-19T10:07:38.273Z,1.22
2022-11-19T10:10:12.507Z,1.24
2022-11-19T10:12:44.330Z,1.12
2022-11-19T10:15:16.325Z,1.17
2022-11-19T10:17:47.902Z,1.22
2022-11-19T10:20:19.804Z,1.20
2022-11-19T10:22:57.156Z,1.04
2022-11-19T10:25:29.617Z,1.08
2022-11-19T10:28:01.850Z,1.02
2022-11-19T10:30:33.374Z,1.08
2022-11-19T10:33:04.923Z,0.19
2022-11-19T10:35:36.739Z,1.37
2022-11-19T10:38:08.199Z,1.39
2022-11-19T10:40:40.043Z,1.53
2022-11-19T10:43:11.532Z,1.47
2022-11-19T10:45:43.387Z,1.54
2022-11-19T10:48:14.865Z,1.62
2022-11-19T10:50:46.701Z,1.63
2022-11-19T10:53:18.224Z,1.75
2022-11-19T10:55:54.192Z,1.86
2022-11-19T10:58:26.293Z,2.26
2022-11-19T11:00:58.118Z,2.24
2022-11-19T11:03:29.646Z,2.36
2022-11-19T11:06:03.200Z,2.18
2022-11-19T11:08:34.674Z,2.34
2022-11-19T11:11:06.543Z,2.60
2022-11-19T11:13:56.887Z,2.61
2022-11-19T11:16:29.873Z,2.71
2022-11-19T11:19:03.191Z,3.19
2022-11-19T11:21:35.171Z,3.63
2022-11-19T11:24:06.676Z,3.43
2022-11-19T11:26:38.675Z,3.35
2022-11-19T11:29:10.138Z,3.13
2022-11-19T11:31:42.103Z,3.29
2022-11-19T11:34:14.609Z,2.83
2022-11-19T11:36:46.400Z,2.54
2022-11-19T11:39:18.265Z,2.44
2022-11-19T11:42:07.023Z,2.27
2022-11-19T11:44:38.934Z,2.33
2022-11-19T11:47:10.462Z,2.48
2022-11-19T11:49:42.300Z,2.48
2022-11-19T11:52:14.252Z,2.70
2022-11-19T11:54:46.074Z,2.93
2022-11-19T11:57:17.592Z,3.09
2022-11-19T11:59:49.403Z,3.28
2022-11-19T12:02:21.253Z,3.55
2022-11-19T12:04:52.832Z,3.60
2022-11-19T12:07:24.382Z,3.58
2022-11-19T12:09:56.232Z,3.63
2022-11-19T12:12:27.709Z,3.03
2022-11-19T12:14:59.320Z,2.73
2022-11-19T12:17:30.885Z,2.78
2022-11-19T12:20:02.891Z,2.69
2022-11-19T12:22:34.370Z,2.90
2022-11-19T12:25:05.879Z,3.20
2022-11-19T12:27:37.356Z,3.48
2022-11-19T12:30:09.712Z,3.69
2022-11-19T12:32:41.208Z,3.78
2022-11-19T12:35:13.010Z,3.84
2022-11-19T12:37:44.488Z,4.02
2022-11-19T12:40:15.976Z,4.00
2022-11-19T12:42:47.453Z,4.45
2022-11-19T12:45:18.927Z,4.33
2022-11-19T12:47:50.402Z,4.32
2022-11-19T12:50:22.389Z,4.18
2022-11-19T12:52:53.977Z,2.65
2022-11-19T12:55:25.928Z,3.84
2022-11-19T12:57:57.476Z,3.83
2022-11-19T13:00:29.339Z,3.76
2022-11-19T13:03:01.105Z,3.18
2022-11-19T13:05:32.903Z,3.10
2022-11-19T13:08:04.399Z,3.09
2022-11-19T13:10:35.954Z,3.13
2022-11-19T13:13:07.427Z,2.94
2022-11-19T13:15:39.371Z,2.67
2022-11-19T13:18:10.959Z,2.87
2022-11-19T13:20:42.766Z,2.87
2022-11-19T13:23:14.239Z,2.41
2022-11-19T13:25:46.232Z,2.46
2022-11-19T13:28:17.701Z,2.38
2022-11-19T13:30:49.484Z,2.32
2022-11-19T13:33:20.974Z,2.08
2022-11-19T13:35:52.505Z,1.84
2022-11-19T13:38:24.025Z,1.85
2022-11-19T13:40:55.530Z,1.68
2022-11-19T13:43:45.815Z,1.71
2022-11-19T13:46:17.309Z,1.58
2022-11-19T13:48:48.800Z,1.56
2022-11-19T13:51:20.558Z,1.60
2022-11-19T13:53:52.044Z,1.52
2022-11-19T13:56:23.858Z,1.58
2022-11-19T13:58:55.427Z,1.40
2022-11-19T14:01:27.540Z,1.50
2022-11-19T14:03:59.066Z,1.34
2022-11-19T14:06:30.690Z,1.25
2022-11-19T14:09:02.183Z,1.21
2022-11-19T14:11:33.978Z,1.25
2022-11-19T14:14:05.442Z,1.27
2022-11-19T14:17:03.191Z,1.26
2022-11-19T14:19:53.244Z,1.28
2022-11-19T14:22:43.500Z,1.11
2022-11-19T14:25:33.983Z,1.10
2022-11-19T14:28:05.438Z,1.08
2022-11-19T14:30:36.949Z,1.00
2022-11-19T14:33:08.427Z,0.97
2022-11-19T14:35:40.302Z,1.02
2022-11-19T14:38:11.867Z,0.99
2022-11-19T14:40:44.213Z,1.03
2022-11-19T14:43:54.214Z,0.93
2022-11-19T14:46:26.134Z,0.78
2022-11-19T14:48:57.697Z,0.96
2022-11-19T14:51:29.666Z,0.93
2022-11-19T14:54:01.114Z,-0.06
2022-11-19T14:56:33.006Z,0.80
2022-11-19T14:59:04.472Z,0.78
2022-11-19T15:01:36.382Z,0.75
2022-11-19T15:04:07.858Z,0.79
2022-11-19T15:06:40.105Z,0.70
2022-11-19T15:09:11.568Z,0.70
2022-11-19T15:11:43.388Z,0.65
2022-11-19T15:14:14.855Z,0.64
2022-11-19T15:16:46.404Z,0.61
2022-11-19T15:19:18.068Z,0.54
2022-11-19T15:21:50.125Z,0.47
2022-11-19T15:24:21.643Z,0.43
2022-11-19T15:26:53.402Z,0.43
2022-11-19T15:29:24.898Z,0.47
2022-11-19T15:31:56.777Z,0.52
2022-11-19T15:34:38.628Z,0.44
2022-11-19T15:37:20.404Z,0.52
2022-11-19T15:39:51.874Z,0.48
2022-11-19T15:42:23.737Z,0.43
2022-11-19T15:44:55.238Z,0.45
2022-11-19T15:47:27.206Z,0.43
2022-11-19T15:49:58.698Z,0.39
2022-11-19T15:52:33.581Z,0.37
2022-11-19T15:55:05.079Z,0.33
2022-11-19T15:57:36.560Z,0.37
2022-11-19T16:00:08.095Z,0.32
2022-11-19T16:02:39.982Z,0.29
2022-11-19T16:05:11.454Z,0.23
2022-11-19T16:07:43.273Z,0.28
2022-11-19T16:10:14.776Z,0.14
2022-11-19T16:13:05.117Z,0.13
2022-11-19T16:16:08.798Z,0.07
2022-11-19T16:18:40.367Z,0.07
2022-11-19T16:21:11.861Z,0.08
2022-11-19T16:24:03.757Z,0.10
2022-11-19T16:26:35.231Z,0.10
2022-11-19T16:29:06.773Z,0.09
2022-11-19T16:31:38.250Z,0.08
2022-11-19T16:34:09.733Z,0.07
2022-11-19T16:36:41.238Z,0.10
2022-11-19T16:39:12.754Z,0.05
2022-11-19T16:42:03.239Z,-0.06
2022-11-19T16:44:34.711Z,0.03
2022-11-19T16:47:06.504Z,-0.01
2022-11-19T16:49:37.973Z,-0.03
2022-11-19T16:52:09.823Z,0.01
2022-11-19T16:54:41.291Z,-0.01
2022-11-19T16:57:13.138Z,-0.04
2022-11-19T16:59:44.596Z,-0.06
2022-11-19T17:02:16.394Z,-0.04
2022-11-19T17:04:48.895Z,-0.04
2022-11-19T17:07:20.719Z,-0.06
2022-11-19T17:09:52.226Z,-0.06
2022-11-19T17:12:24.186Z,-0.03
2022-11-19T17:14:55.749Z,0.04
2022-11-19T17:17:27.612Z,0.05
2022-11-19T17:19:59.108Z,0.05
2022-11-19T17:22:31.347Z,0.05
2022-11-19T17:25:03.702Z,0.14
2022-11-19T17:27:35.474Z,0.09
2022-11-19T17:30:06.992Z,0.06
2022-11-19T17:32:38.990Z,-0.02
2022-11-19T17:35:10.486Z,-0.03
2022-11-19T17:37:42.285Z,0.02
2022-11-19T17:40:13.745Z,0.10
2022-11-19T17:43:04.175Z,0.17
2022-11-19T17:45:35.661Z,0.07
2022-11-19T17:48:07.158Z,0.11
2022-11-19T17:50:38.647Z,-0.01
2022-11-19T17:53:10.781Z,0.04
2022-11-19T17:55:42.242Z,0.04
2022-11-19T17:58:14.727Z,0.12
2022-11-19T18:00:46.286Z,0.05
2022-11-19T18:03:18.164Z,0.09
2022-11-19T18:05:49.681Z,0.13
2022-11-19T18:08:21.503Z,-0.76
2022-11-19T18:10:52.985Z,0.10
2022-11-19T18:13:24.777Z,0.06
2022-11-19T18:15:57.661Z,0.00
2022-11-19T18:18:29.453Z,0.10
2022-11-19T18:21:02.389Z,0.13
2022-11-19T18:23:34.315Z,0.07
2022-11-19T18:26:05.790Z,0.01
2022-11-19T18:28:44.910Z,-0.01
2022-11-19T18:31:19.190Z,0.04
2022-11-19T18:33:51.110Z,0.10
2022-11-19T18:36:22.639Z,0.16
2022-11-19T18:38:55.873Z,0.16
2022-11-19T18:41:27.549Z,0.13
2022-11-19T18:44:18.367Z,0.11
2022-11-19T18:46:49.863Z,0.14
2022-11-19T18:49:22.017Z,0.15
2022-11-19T18:51:53.681Z,0.19
2022-11-19T18:54:25.447Z,0.20
2022-11-19T18:56:56.926Z,0.21
2022-11-19T18:59:29.842Z,0.26
2022-11-19T19:02:02.028Z,0.24
2022-11-19T19:04:33.819Z,0.17
2022-11-19T19:07:05.498Z,0.25
2022-11-19T19:09:37.368Z,0.23
2022-11-19T19:12:18.175Z,0.21
2022-11-19T19:14:51.536Z,0.30
2022-11-19T19:17:23.510Z,0.32
2022-11-19T19:19:55.317Z,0.30
2022-11-19T19:22:26.871Z,0.31
2022-11-19T19:24:58.735Z,0.35
2022-11-19T19:27:30.279Z,0.32
2022-11-19T19:30:02.218Z,0.27
2022-11-19T19:32:33.687Z,0.32
2022-11-19T19:35:05.710Z,0.31
2022-11-19T19:37:37.199Z,0.29
2022-11-19T19:40:09.232Z,0.24
2022-11-19T19:42:41.480Z,0.31
2022-11-19T19:45:13.611Z,0.32
2022-11-19T19:47:45.461Z,0.30
2022-11-19T19:50:16.944Z,0.29
2022-11-19T19:52:49.099Z,0.30
2022-11-19T19:55:21.291Z,0.28
2022-11-19T19:57:54.061Z,0.29
2022-11-19T20:00:25.544Z,0.29
2022-11-19T20:02:57.066Z,0.21
2022-11-19T20:05:28.561Z,0.17
2022-11-19T20:08:00.855Z,0.24
2022-11-19T20:10:32.457Z,0.26
2022-11-19T20:13:23.287Z,0.19
2022-11-19T20:15:55.059Z,0.22
2022-11-19T20:18:26.678Z,0.08
2022-11-19T20:20:59.223Z,0.13
2022-11-19T20:23:30.696Z,-0.01
2022-11-19T20:26:02.285Z,0.03
2022-11-19T20:28:33.898Z,0.02
2022-11-19T20:31:05.455Z,-0.01
2022-11-19T20:33:36.992Z,-0.07
2022-11-19T20:36:08.526Z,-0.10
2022-11-19T20:38:41.478Z,-0.05
2022-11-19T20:41:31.965Z,-0.08
2022-11-19T20:44:22.541Z,-0.12
2022-11-19T20:46:54.455Z,-0.13
2022-11-19T20:49:26.300Z,-0.12
2022-11-19T20:51:57.840Z,-0.14
2022-11-19T20:54:29.703Z,-0.18
2022-11-19T20:57:01.275Z,-0.18
2022-11-19T20:59:32.804Z,-0.17
2022-11-19T21:02:04.447Z,-0.11
2022-11-19T21:04:37.274Z,-0.12
2022-11-19T21:07:08.809Z,-0.17
2022-11-19T21:09:40.981Z,-0.12
2022-11-19T21:12:12.584Z,-0.20
2022-11-19T21:14:44.161Z,-0.19
2022-11-19T21:17:15.664Z,-0.21
2022-11-19T21:19:48.966Z,-0.28
2022-11-19T21:22:20.478Z,-0.22
2022-11-19T21:24:52.327Z,-0.23
2022-11-19T21:27:24.203Z,-0.34
2022-11-19T21:29:55.995Z,-0.33
2022-11-19T21:32:27.694Z,-0.28
2022-11-19T21:34:59.637Z,-0.27
2022-11-19T21:37:31.208Z,-0.38
2022-11-19T21:40:03.058Z,-0.35
2022-11-19T21:42:34.573Z,-1.73
2022-11-19T21:45:06.102Z,-0.31
2022-11-19T21:47:40.657Z,-0.37
2022-11-19T21:50:12.404Z,-0.38
2022-11-19T21:52:43.979Z,-0.31
2022-11-19T21:55:15.593Z,-0.37
2022-11-19T21:57:47.119Z,-0.40
2022-11-19T22:00:19.033Z,-0.35
2022-11-19T22:02:50.624Z,-0.34
2022-11-19T22:05:25.016Z,-0.34
2022-11-19T22:07:56.540Z,-0.34
2022-11-19T22:10:28.359Z,-0.42
2022-11-19T22:12:59.915Z,-0.48
2022-11-19T22:15:31.424Z,-0.47
2022-11-19T22:18:02.892Z,-0.57
2022-11-19T22:20:34.779Z,-0.53
2022-11-19T22:23:06.272Z,-0.56
2022-11-19T22:25:37.811Z,-0.59
2022-11-19T22:28:09.294Z,-0.53
2022-11-19T22:30:41.241Z,-0.55
2022-11-19T22:33:12.731Z,-0.58
2022-11-19T22:35:44.483Z,-0.57
2022-11-19T22:38:15.951Z,-0.48
2022-11-19T22:40:47.792Z,-0.54
2022-11-19T22:43:22.919Z,-0.50
2022-11-19T22:45:54.942Z,-0.41
2022-11-19T22:48:26.445Z,-0.56
2022-11-19T22:50:58.396Z,-0.57
2022-11-19T22:53:29.885Z,-0.69
2022-11-19T22:56:01.799Z,-0.59
2022-11-19T22:58:33.286Z,-0.57
2022-11-19T23:01:05.167Z,-0.48
2022-11-19T23:03:36.628Z,-0.57
2022-11-19T23:06:08.117Z,-0.52
2022-11-19T23:08:39.592Z,-0.55
2022-11-19T23:11:11.418Z,-0.54
2022-11-19T23:13:42.889Z,-0.51
2022-11-19T23:16:14.725Z,-0.59
2022-11-19T23:18:46.236Z,-0.71
2022-11-19T23:21:18.187Z,-0.74
2022-11-19T23:23:50.125Z,-0.77
2022-11-19T23:26:21.590Z,-0.76
2022-11-19T23:28:53.284Z,-0.75
2022-11-19T23:31:24.773Z,-0.74
2022-11-19T23:33:59.212Z,-0.71
2022-11-19T23:36:31.059Z,-0.71
2022-11-19T23:39:03.135Z,-0.61
2022-11-19T23:41:34.594Z,-0.66
2022-11-19T23:44:06.556Z,-0.75
2022-11-19T23:46:38.032Z,-0.72
2022-11-19T23:49:10.403Z,-0.64
2022-11-19T23:51:41.930Z,-0.60
2022-11-19T23:54:14.498Z,-0.56
2022-11-19T23:56:45.983Z,-0.59
2022-11-19T23:59:21.691Z,-0.69
